createdAt,value
2018-01-12T00:00:00.236Z,0.00
2018-01-12T00:01:00.329Z,0.00
2018-01-12T00:02:00.299Z,0.00
2018-01-12T00:03:00.334Z,0.00
2018-01-12T00:04:00.367Z,0.00
2018-01-12T00:05:00.394Z,0.00
2018-01-12T00:06:00.427Z,0.00
2018-01-12T00:07:00.460Z,0.00
2018-01-12T00:08:00.491Z,0.00
2018-01-12T00:09:00.530Z,0.00
2018-01-12T00:10:00.555Z,0.00
2018-01-12T00:11:00.585Z,0.00
2018-01-12T00:12:00.617Z,0.00
2018-01-12T00:13:00.650Z,0.00
2018-01-12T00:14:00.680Z,0.00
2018-01-12T00:15:00.716Z,0.00
2018-01-12T00:17:00.778Z,0.00
2018-01-12T00:18:00.909Z,0.00
2018-01-12T00:19:00.842Z,0.00
2018-01-12T00:20:00.875Z,0.00
2018-01-12T00:21:00.913Z,0.00
2018-01-12T00:22:00.937Z,0.00
2018-01-12T00:23:00.970Z,0.00
2018-01-12T00:24:01.003Z,0.00
2018-01-12T00:25:01.035Z,0.00
2018-01-12T00:26:01.070Z,0.00
2018-01-12T00:27:01.097Z,0.00
2018-01-12T00:28:01.131Z,0.00
2018-01-12T00:29:01.159Z,0.00
2018-01-12T00:30:01.522Z,0.00
2018-01-12T00:31:01.228Z,0.00
2018-01-12T00:32:01.257Z,0.00
2018-01-12T00:33:01.287Z,0.00
2018-01-12T00:34:01.318Z,0.00
2018-01-12T00:35:01.353Z,0.00
2018-01-12T00:36:01.383Z,0.00
2018-01-12T00:37:01.526Z,0.00
2018-01-12T00:38:01.448Z,0.00
2018-01-12T00:39:01.491Z,0.00
2018-01-12T00:40:01.518Z,0.00
2018-01-12T00:41:01.542Z,0.00
2018-01-12T00:42:01.585Z,0.00
2018-01-12T00:43:01.606Z,0.00
2018-01-12T00:44:01.744Z,0.00
2018-01-12T00:45:01.683Z,0.00
2018-01-12T00:46:01.702Z,0.00
2018-01-12T00:47:01.749Z,0.00
2018-01-12T00:48:01.767Z,0.00
2018-01-12T00:49:01.799Z,0.00
2018-01-12T00:50:01.831Z,0.00
2018-01-12T00:51:01.859Z,0.00
2018-01-12T00:52:01.949Z,0.00
2018-01-12T00:53:01.921Z,0.00
2018-01-12T00:54:01.954Z,0.00
2018-01-12T00:55:01.990Z,0.00
2018-01-12T00:56:02.021Z,0.00
2018-01-12T00:57:02.053Z,0.00
2018-01-12T00:58:02.093Z,0.00
2018-01-12T00:59:02.117Z,0.00
2018-01-12T01:00:02.159Z,0.00
2018-01-12T01:01:02.232Z,0.00
2018-01-12T01:02:02.214Z,0.00
2018-01-12T01:03:02.244Z,0.00
2018-01-12T01:04:02.275Z,0.00
2018-01-12T01:05:02.306Z,0.00
2018-01-12T01:06:02.343Z,0.00
2018-01-12T01:07:02.385Z,0.00
2018-01-12T01:08:02.467Z,0.00
2018-01-12T01:09:02.434Z,0.00
2018-01-12T01:10:02.466Z,0.00
2018-01-12T01:11:02.516Z,0.00
2018-01-12T01:12:02.540Z,0.00
2018-01-12T01:13:02.586Z,0.00
2018-01-12T01:14:02.592Z,0.00
2018-01-12T01:15:02.626Z,0.00
2018-01-12T01:16:02.665Z,0.00
2018-01-12T01:17:02.688Z,0.00
2018-01-12T01:18:02.722Z,0.00
2018-01-12T01:19:02.752Z,0.00
2018-01-12T01:20:02.812Z,0.00
2018-01-12T01:21:02.819Z,0.00
2018-01-12T01:22:02.848Z,0.00
2018-01-12T01:23:02.883Z,0.00
2018-01-12T01:24:02.916Z,0.00
2018-01-12T01:25:02.943Z,0.00
2018-01-12T01:26:02.976Z,0.00
2018-01-12T01:27:03.073Z,0.00
2018-01-12T01:28:03.038Z,0.00
2018-01-12T01:29:03.075Z,0.00
2018-01-12T01:30:03.104Z,0.00
2018-01-12T01:31:03.135Z,0.00
2018-01-12T01:32:03.167Z,0.00
2018-01-12T01:33:03.206Z,0.00
2018-01-12T01:34:03.294Z,0.00
2018-01-12T01:35:03.268Z,0.00
2018-01-12T01:36:03.295Z,0.00
2018-01-12T01:38:03.360Z,0.00
2018-01-12T01:39:03.391Z,0.00
2018-01-12T01:40:03.425Z,0.00
2018-01-12T01:41:03.456Z,0.00
2018-01-12T01:42:03.485Z,0.00
2018-01-12T01:43:03.521Z,0.00
2018-01-12T01:44:03.611Z,0.00
2018-01-12T01:45:03.579Z,0.00
2018-01-12T01:46:03.611Z,0.00
2018-01-12T01:47:03.650Z,0.00
2018-01-12T01:48:03.675Z,0.00
2018-01-12T01:49:03.707Z,0.00
2018-01-12T01:50:03.739Z,0.00
2018-01-12T01:51:03.836Z,0.00
2018-01-12T01:52:03.801Z,0.00
2018-01-12T01:53:03.839Z,0.00
2018-01-12T01:54:03.869Z,0.00
2018-01-12T01:55:04.099Z,0.00
2018-01-12T01:56:03.928Z,0.00
2018-01-12T01:57:03.959Z,0.00
2018-01-12T01:58:04.311Z,0.00
2018-01-12T01:59:04.078Z,0.00
2018-01-12T02:00:04.069Z,0.00
2018-01-12T02:01:04.096Z,0.00
2018-01-12T02:02:04.120Z,0.00
2018-01-12T02:03:04.205Z,0.00
2018-01-12T02:04:04.187Z,0.00
2018-01-12T02:05:04.218Z,0.00
2018-01-12T02:06:04.248Z,0.00
2018-01-12T02:07:04.279Z,0.00
2018-01-12T02:08:04.512Z,0.00
2018-01-12T02:09:04.340Z,0.00
2018-01-12T02:10:04.374Z,0.00
2018-01-12T02:11:04.408Z,0.00
2018-01-12T02:12:04.440Z,0.00
2018-01-12T02:13:04.469Z,0.00
2018-01-12T02:14:04.500Z,0.00
2018-01-12T02:15:04.533Z,0.00
2018-01-12T02:16:04.565Z,0.00
2018-01-12T02:17:04.598Z,0.00
2018-01-12T02:18:04.630Z,0.00
2018-01-12T02:19:04.674Z,0.00
2018-01-12T02:20:04.696Z,0.00
2018-01-12T02:21:04.725Z,0.00
2018-01-12T02:22:04.759Z,0.00
2018-01-12T02:23:04.800Z,0.00
2018-01-12T02:24:04.819Z,0.00
2018-01-12T02:25:04.853Z,0.00
2018-01-12T02:26:04.885Z,0.00
2018-01-12T02:27:04.925Z,0.00
2018-01-12T02:28:04.952Z,0.00
2018-01-12T02:29:04.979Z,0.00
2018-01-12T02:30:05.020Z,0.00
2018-01-12T02:31:05.043Z,0.00
2018-01-12T02:32:05.075Z,0.00
2018-01-12T02:33:05.111Z,0.00
2018-01-12T02:34:05.240Z,0.00
2018-01-12T02:35:05.170Z,0.00
2018-01-12T02:36:05.203Z,0.00
2018-01-12T02:37:05.250Z,0.00
2018-01-12T02:38:05.272Z,0.00
2018-01-12T02:39:05.300Z,0.00
2018-01-12T02:40:05.339Z,0.00
2018-01-12T02:41:05.360Z,0.00
2018-01-12T02:42:05.398Z,0.00
2018-01-12T02:43:05.434Z,0.00
2018-01-12T02:44:05.462Z,0.00
2018-01-12T02:45:05.492Z,0.00
2018-01-12T02:46:05.540Z,0.00
2018-01-12T02:47:05.557Z,0.00
2018-01-12T02:48:05.641Z,0.00
2018-01-12T02:49:05.623Z,0.00
2018-01-12T02:50:05.652Z,0.00
2018-01-12T02:51:05.689Z,0.00
2018-01-12T02:52:05.718Z,0.00
2018-01-12T02:53:05.753Z,0.00
2018-01-12T02:54:05.778Z,0.00
2018-01-12T02:55:05.815Z,0.00
2018-01-12T02:56:05.844Z,0.00
2018-01-12T02:57:05.878Z,0.00
2018-01-12T02:58:05.964Z,0.00
2018-01-12T02:59:05.950Z,0.00
2018-01-12T03:00:05.973Z,0.00
2018-01-12T03:01:06.007Z,0.00
2018-01-12T03:02:06.043Z,0.00
2018-01-12T03:03:06.069Z,0.00
2018-01-12T03:04:06.100Z,0.00
2018-01-12T03:05:06.135Z,0.00
2018-01-12T03:06:06.180Z,0.00
2018-01-12T03:07:06.220Z,0.00
2018-01-12T03:08:06.234Z,0.00
2018-01-12T03:09:06.263Z,0.00
2018-01-12T03:10:06.294Z,0.00
2018-01-12T03:11:06.324Z,0.00
2018-01-12T03:12:06.355Z,0.00
2018-01-12T03:13:06.387Z,0.00
2018-01-12T03:14:06.426Z,0.00
2018-01-12T03:15:06.455Z,0.00
2018-01-12T03:16:06.485Z,0.00
2018-01-12T03:17:06.522Z,0.00
2018-01-12T03:18:06.548Z,0.00
2018-01-12T03:19:06.580Z,0.00
2018-01-12T03:20:06.615Z,0.00
2018-01-12T03:21:06.645Z,0.00
2018-01-12T03:22:06.677Z,0.00
2018-01-12T03:23:06.708Z,0.00
2018-01-12T03:24:07.080Z,0.00
2018-01-12T03:25:06.770Z,0.00
2018-01-12T03:26:06.806Z,0.00
2018-01-12T03:27:06.835Z,0.00
2018-01-12T03:28:06.866Z,0.00
2018-01-12T03:29:06.899Z,0.00
2018-01-12T03:30:06.933Z,0.00
2018-01-12T03:31:06.968Z,0.00
2018-01-12T03:32:06.998Z,0.00
2018-01-12T03:33:07.027Z,0.00
2018-01-12T03:34:07.057Z,0.00
2018-01-12T03:35:07.092Z,0.00
2018-01-12T03:36:07.124Z,0.00
2018-01-12T03:37:07.157Z,0.00
2018-01-12T03:38:07.189Z,0.00
2018-01-12T03:39:07.218Z,0.00
2018-01-12T03:40:07.254Z,0.00
2018-01-12T03:41:07.331Z,0.00
2018-01-12T03:42:07.319Z,0.00
2018-01-12T03:43:07.347Z,0.00
2018-01-12T03:44:07.392Z,0.00
2018-01-12T03:45:07.409Z,0.00
2018-01-12T03:46:07.440Z,0.00
2018-01-12T03:47:07.472Z,0.00
2018-01-12T03:48:07.549Z,0.00
2018-01-12T03:49:07.538Z,0.00
2018-01-12T03:50:07.569Z,0.00
2018-01-12T03:51:07.601Z,0.00
2018-01-12T03:52:07.631Z,0.00
2018-01-12T03:53:07.662Z,0.00
2018-01-12T03:54:07.694Z,0.00
2018-01-12T03:55:07.730Z,0.00
2018-01-12T03:56:07.759Z,0.00
2018-01-12T03:57:07.791Z,0.00
2018-01-12T03:58:07.824Z,0.00
2018-01-12T03:59:07.855Z,0.00
2018-01-12T04:00:07.943Z,0.00
2018-01-12T04:01:07.920Z,0.00
2018-01-12T04:02:07.950Z,0.00
2018-01-12T04:03:07.978Z,0.00
2018-01-12T04:04:08.014Z,0.00
2018-01-12T04:05:08.045Z,0.00
2018-01-12T04:06:08.086Z,0.00
2018-01-12T04:07:08.133Z,0.00
2018-01-12T04:08:08.156Z,0.00
2018-01-12T04:09:08.171Z,0.00
2018-01-12T04:10:08.205Z,0.00
2018-01-12T04:11:08.255Z,0.00
2018-01-12T04:12:08.286Z,0.00
2018-01-12T04:13:08.303Z,0.00
2018-01-12T04:14:08.332Z,0.00
2018-01-12T04:15:08.366Z,0.00
2018-01-12T04:16:08.402Z,0.00
2018-01-12T04:17:08.433Z,0.00
2018-01-12T04:18:08.463Z,0.00
2018-01-12T04:19:08.492Z,0.00
2018-01-12T04:20:08.528Z,0.00
2018-01-12T04:21:08.605Z,0.00
2018-01-12T04:22:08.587Z,0.00
2018-01-12T04:23:08.622Z,0.00
2018-01-12T04:24:08.707Z,0.00
2018-01-12T04:25:08.683Z,0.00
2018-01-12T04:26:08.714Z,0.00
2018-01-12T04:27:08.749Z,0.00
2018-01-12T04:28:08.782Z,0.00
2018-01-12T04:29:08.813Z,0.00
2018-01-12T04:30:08.844Z,0.00
2018-01-12T04:31:08.950Z,0.00
2018-01-12T04:32:08.908Z,0.00
2018-01-12T04:33:08.939Z,0.00
2018-01-12T04:34:08.973Z,0.00
2018-01-12T04:35:09.005Z,0.00
2018-01-12T04:36:09.037Z,0.00
2018-01-12T04:37:09.066Z,0.00
2018-01-12T04:38:09.104Z,0.00
2018-01-12T04:39:09.135Z,0.00
2018-01-12T04:40:09.164Z,0.00
2018-01-12T04:41:09.194Z,0.00
2018-01-12T04:42:09.228Z,0.00
2018-01-12T04:43:09.263Z,0.00
2018-01-12T04:44:09.300Z,0.00
2018-01-12T04:45:09.325Z,0.00
2018-01-12T04:46:09.354Z,0.00
2018-01-12T04:47:09.388Z,0.00
2018-01-12T04:48:09.476Z,0.00
2018-01-12T04:49:09.450Z,0.00
2018-01-12T04:50:09.487Z,0.00
2018-01-12T04:51:09.517Z,0.00
2018-01-12T04:52:09.546Z,0.00
2018-01-12T04:53:09.579Z,0.00
2018-01-12T04:54:09.610Z,0.00
2018-01-12T04:55:09.649Z,0.00
2018-01-12T04:56:09.677Z,0.00
2018-01-12T04:57:09.708Z,0.00
2018-01-12T04:58:09.740Z,0.00
2018-01-12T04:59:09.770Z,0.00
2018-01-12T05:00:09.803Z,0.00
2018-01-12T05:01:09.838Z,0.00
2018-01-12T05:02:09.867Z,0.00
2018-01-12T05:03:09.898Z,0.00
2018-01-12T05:04:09.934Z,0.00
2018-01-12T05:05:09.963Z,0.00
2018-01-12T05:06:09.992Z,0.00
2018-01-12T05:07:10.028Z,0.00
2018-01-12T05:08:10.058Z,0.00
2018-01-12T05:09:10.088Z,0.00
2018-01-12T05:10:10.125Z,0.00
2018-01-12T05:11:10.154Z,0.00
2018-01-12T05:12:10.189Z,0.00
2018-01-12T05:13:10.220Z,0.00
2018-01-12T05:14:10.386Z,0.00
2018-01-12T05:15:10.281Z,0.00
2018-01-12T05:16:10.329Z,0.00
2018-01-12T05:17:10.348Z,0.00
2018-01-12T05:18:10.378Z,0.00
2018-01-12T05:19:10.410Z,0.00
2018-01-12T05:20:10.442Z,0.00
2018-01-12T05:21:10.575Z,0.00
2018-01-12T05:22:10.510Z,0.00
2018-01-12T05:23:10.536Z,0.00
2018-01-12T05:24:10.570Z,0.00
2018-01-12T05:25:10.600Z,0.00
2018-01-12T05:26:10.636Z,0.00
2018-01-12T05:27:10.666Z,0.00
2018-01-12T05:28:10.695Z,0.00
2018-01-12T05:29:10.732Z,0.00
2018-01-12T05:30:10.761Z,0.00
2018-01-12T05:31:10.796Z,0.00
2018-01-12T05:32:10.826Z,0.00
2018-01-12T05:33:10.856Z,0.00
2018-01-12T05:34:10.892Z,0.00
2018-01-12T05:35:10.921Z,0.00
2018-01-12T05:36:10.955Z,0.00
2018-01-12T05:37:10.984Z,0.00
2018-01-12T05:38:11.074Z,0.00
2018-01-12T05:39:11.051Z,0.00
2018-01-12T05:40:11.081Z,0.00
2018-01-12T05:41:11.113Z,0.00
2018-01-12T05:42:11.147Z,0.00
2018-01-12T05:43:11.182Z,0.00
2018-01-12T05:44:11.212Z,0.00
2018-01-12T05:45:11.242Z,0.00
2018-01-12T05:46:11.274Z,0.00
2018-01-12T05:47:11.306Z,0.00
2018-01-12T05:48:11.344Z,0.00
2018-01-12T05:49:11.374Z,0.00
2018-01-12T05:50:11.405Z,0.00
2018-01-12T05:51:11.435Z,0.00
2018-01-12T05:52:11.468Z,0.00
2018-01-12T05:53:11.512Z,0.00
2018-01-12T05:54:11.532Z,0.00
2018-01-12T05:55:11.563Z,0.00
2018-01-12T05:56:11.593Z,0.00
2018-01-12T05:57:11.646Z,0.00
2018-01-12T05:58:11.657Z,0.00
2018-01-12T05:59:11.693Z,0.00
2018-01-12T06:00:11.725Z,0.00
2018-01-12T06:01:11.754Z,0.00
2018-01-12T06:02:11.783Z,0.00
2018-01-12T06:03:11.820Z,0.00
2018-01-12T06:04:11.953Z,0.00
2018-01-12T06:05:11.888Z,0.00
2018-01-12T06:06:11.915Z,0.00
2018-01-12T06:07:11.944Z,0.00
2018-01-12T06:08:11.978Z,0.00
2018-01-12T06:09:12.008Z,0.00
2018-01-12T06:10:12.046Z,0.00
2018-01-12T06:11:12.075Z,0.00
2018-01-12T06:12:12.108Z,0.00
2018-01-12T06:13:12.146Z,0.00
2018-01-12T06:14:12.171Z,0.00
2018-01-12T06:15:12.204Z,0.00
2018-01-12T06:16:12.236Z,0.00
2018-01-12T06:17:12.266Z,0.00
2018-01-12T06:18:12.297Z,0.00
2018-01-12T06:19:12.331Z,0.00
2018-01-12T06:20:12.363Z,0.00
2018-01-12T06:21:12.403Z,0.00
2018-01-12T06:22:12.427Z,0.00
2018-01-12T06:23:12.542Z,0.00
2018-01-12T06:24:12.492Z,0.00
2018-01-12T06:25:12.526Z,0.00
2018-01-12T06:26:12.572Z,0.00
2018-01-12T06:27:12.587Z,0.00
2018-01-12T06:28:12.643Z,0.00
2018-01-12T06:29:12.649Z,0.00
2018-01-12T06:30:12.681Z,0.00
2018-01-12T06:31:12.717Z,0.00
2018-01-12T06:32:12.746Z,0.00
2018-01-12T06:33:12.780Z,0.00
2018-01-12T06:34:12.812Z,0.00
2018-01-12T06:35:12.842Z,0.00
2018-01-12T06:36:12.878Z,0.00
2018-01-12T06:37:12.908Z,0.00
2018-01-12T06:38:12.941Z,0.00
2018-01-12T06:39:12.973Z,0.00
2018-01-12T06:40:13.012Z,0.00
2018-01-12T06:41:13.038Z,0.00
2018-01-12T06:42:13.069Z,0.00
2018-01-12T06:43:13.102Z,0.00
2018-01-12T06:44:13.140Z,0.00
2018-01-12T06:45:13.165Z,0.00
2018-01-12T06:46:13.200Z,0.00
2018-01-12T06:47:13.299Z,0.00
2018-01-12T06:48:13.262Z,0.00
2018-01-12T06:49:13.355Z,4.00
2018-01-12T06:50:13.326Z,4.00
2018-01-12T06:51:13.357Z,0.00
2018-01-12T06:52:13.388Z,0.00
2018-01-12T06:53:13.422Z,4.00
2018-01-12T06:54:13.462Z,4.00
2018-01-12T06:55:13.489Z,4.00
2018-01-12T06:56:13.520Z,4.00
2018-01-12T06:57:13.549Z,4.00
2018-01-12T06:58:13.582Z,8.00
2018-01-12T06:59:13.629Z,8.00
2018-01-12T07:00:13.650Z,8.00
2018-01-12T07:01:13.688Z,8.00
2018-01-12T07:02:13.710Z,12.00
2018-01-12T07:03:13.746Z,12.00
2018-01-12T07:04:13.803Z,16.00
2018-01-12T07:05:13.812Z,20.00
2018-01-12T07:06:13.840Z,24.00
2018-01-12T07:07:13.891Z,28.00
2018-01-12T07:08:13.910Z,32.00
2018-01-12T07:09:13.936Z,40.00
2018-01-12T07:10:13.974Z,44.00
2018-01-12T07:11:14.341Z,48.00
2018-01-12T07:12:14.034Z,56.00
2018-01-12T07:13:14.064Z,60.00
2018-01-12T07:14:14.097Z,64.00
2018-01-12T07:15:14.131Z,72.00
2018-01-12T07:16:14.176Z,80.00
2018-01-12T07:17:14.193Z,84.00
2018-01-12T07:18:14.637Z,92.00
2018-01-12T07:19:14.257Z,104.00
2018-01-12T07:20:14.294Z,116.00
2018-01-12T07:21:14.322Z,128.00
2018-01-12T07:22:14.356Z,144.00
2018-01-12T07:23:14.401Z,156.00
2018-01-12T07:24:14.420Z,168.00
2018-01-12T07:25:14.461Z,184.00
2018-01-12T07:26:14.483Z,196.00
2018-01-12T07:27:14.515Z,208.00
2018-01-12T07:28:14.549Z,216.00
2018-01-12T07:29:14.579Z,224.00
2018-01-12T07:30:14.626Z,232.00
2018-01-12T07:31:14.646Z,244.00
2018-01-12T07:32:14.675Z,256.00
2018-01-12T07:33:14.709Z,268.00
2018-01-12T07:34:14.739Z,272.00
2018-01-12T07:35:14.773Z,268.00
2018-01-12T07:36:14.804Z,256.00
2018-01-12T07:37:14.868Z,244.00
2018-01-12T07:38:14.869Z,244.00
2018-01-12T07:39:14.899Z,256.00
2018-01-12T07:40:14.934Z,272.00
2018-01-12T07:41:14.965Z,296.00
2018-01-12T07:42:14.999Z,312.00
2018-01-12T07:43:15.031Z,320.00
2018-01-12T07:44:15.066Z,324.00
2018-01-12T07:45:15.096Z,344.00
2018-01-12T07:46:15.124Z,360.00
2018-01-12T07:47:15.158Z,376.00
2018-01-12T07:48:15.190Z,384.00
2018-01-12T07:49:15.276Z,404.00
2018-01-12T07:50:15.256Z,424.00
2018-01-12T07:51:15.297Z,452.00
2018-01-12T07:52:15.320Z,488.00
2018-01-12T07:53:15.351Z,512.00
2018-01-12T07:54:15.709Z,520.00
2018-01-12T07:55:15.416Z,520.00
2018-01-12T07:56:15.447Z,508.00
2018-01-12T07:57:15.479Z,492.00
2018-01-12T07:58:15.514Z,480.00
2018-01-12T07:59:15.549Z,468.00
2018-01-12T08:00:15.599Z,468.00
2018-01-12T08:01:15.641Z,460.00
2018-01-12T08:02:15.646Z,468.00
2018-01-12T08:03:15.676Z,480.00
2018-01-12T08:04:15.710Z,504.00
2018-01-12T08:05:15.737Z,540.00
2018-01-12T08:06:15.772Z,576.00
2018-01-12T08:07:15.821Z,592.00
2018-01-12T08:08:15.836Z,592.00
2018-01-12T08:09:15.867Z,580.00
2018-01-12T08:10:15.901Z,564.00
2018-01-12T08:11:15.932Z,552.00
2018-01-12T08:12:15.963Z,540.00
2018-01-12T08:13:15.998Z,532.00
2018-01-12T08:14:16.038Z,536.00
2018-01-12T08:15:16.060Z,556.00
2018-01-12T08:16:16.098Z,576.00
2018-01-12T08:17:16.129Z,600.00
2018-01-12T08:18:16.177Z,624.00
2018-01-12T08:19:16.190Z,648.00
2018-01-12T08:20:16.225Z,664.00
2018-01-12T08:21:16.253Z,676.00
2018-01-12T08:22:16.327Z,676.00
2018-01-12T08:23:16.319Z,664.00
2018-01-12T08:24:16.353Z,636.00
2018-01-12T08:25:16.392Z,612.00
2018-01-12T08:26:16.431Z,600.00
2018-01-12T08:27:16.448Z,604.00
2018-01-12T08:28:16.482Z,628.00
2018-01-12T08:29:16.515Z,656.00
2018-01-12T08:30:16.550Z,684.00
2018-01-12T08:31:16.580Z,712.00
2018-01-12T08:32:16.613Z,752.00
2018-01-12T08:33:16.643Z,804.00
2018-01-12T08:34:16.681Z,856.00
2018-01-12T08:35:16.710Z,908.00
2018-01-12T08:36:16.754Z,968.00
2018-01-12T08:37:16.830Z,1028.00
2018-01-12T08:38:16.812Z,1072.00
2018-01-12T08:39:16.843Z,1096.00
2018-01-12T08:40:16.872Z,1084.00
2018-01-12T08:41:16.908Z,1056.00
2018-01-12T08:42:16.937Z,1044.00
2018-01-12T08:43:16.969Z,1060.00
2018-01-12T08:44:17.015Z,1088.00
2018-01-12T08:45:17.032Z,1100.00
2018-01-12T08:46:17.065Z,1100.00
2018-01-12T08:47:17.097Z,1104.00
2018-01-12T08:48:17.131Z,1112.00
2018-01-12T08:49:17.162Z,1136.00
2018-01-12T08:50:17.194Z,1180.00
2018-01-12T08:51:17.227Z,1224.00
2018-01-12T08:52:17.265Z,1256.00
2018-01-12T08:53:17.292Z,1272.00
2018-01-12T08:54:17.322Z,1260.00
2018-01-12T08:55:17.354Z,1208.00
2018-01-12T08:56:17.393Z,1144.00
2018-01-12T08:57:17.421Z,1092.00
2018-01-12T08:58:17.453Z,1064.00
2018-01-12T08:59:17.487Z,1068.00
2018-01-12T09:00:17.537Z,1088.00
2018-01-12T09:01:17.876Z,1092.00
2018-01-12T09:02:17.584Z,1076.00
2018-01-12T09:03:17.616Z,1068.00
2018-01-12T09:04:17.660Z,1076.00
2018-01-12T09:05:17.685Z,1096.00
2018-01-12T09:06:17.713Z,1116.00
2018-01-12T09:07:17.749Z,1112.00
2018-01-12T09:08:18.107Z,1120.00
2018-01-12T09:09:17.816Z,1140.00
2018-01-12T09:10:17.847Z,1156.00
2018-01-12T09:11:17.877Z,1176.00
2018-01-12T09:12:17.916Z,1220.00
2018-01-12T09:13:17.944Z,1280.00
2018-01-12T09:14:17.976Z,1332.00
2018-01-12T09:15:18.336Z,1392.00
2018-01-12T09:16:18.040Z,1452.00
2018-01-12T09:17:18.075Z,1520.00
2018-01-12T09:18:18.107Z,1604.00
2018-01-12T09:19:18.140Z,1692.00
2018-01-12T09:20:18.175Z,1784.00
2018-01-12T09:21:18.203Z,1996.00
2018-01-12T09:22:18.235Z,2236.00
2018-01-12T09:23:18.268Z,2364.00
2018-01-12T09:24:18.302Z,2396.00
2018-01-12T09:25:18.361Z,2372.00
2018-01-12T09:26:18.365Z,2260.00
2018-01-12T09:27:18.401Z,2096.00
2018-01-12T09:28:18.440Z,1940.00
2018-01-12T09:29:18.466Z,1856.00
2018-01-12T09:30:18.505Z,1896.00
2018-01-12T09:31:18.537Z,1984.00
2018-01-12T09:32:18.583Z,2052.00
2018-01-12T09:33:18.591Z,2124.00
2018-01-12T09:34:18.696Z,2220.00
2018-01-12T09:35:18.660Z,2296.00
2018-01-12T09:36:18.691Z,2296.00
2018-01-12T09:37:18.728Z,2208.00
2018-01-12T09:38:18.773Z,2144.00
2018-01-12T09:39:18.838Z,2188.00
2018-01-12T09:40:18.822Z,2300.00
2018-01-12T09:41:18.857Z,2456.00
2018-01-12T09:42:18.888Z,2640.00
2018-01-12T09:43:18.921Z,2804.00
2018-01-12T09:44:18.955Z,2940.00
2018-01-12T09:45:18.984Z,3028.00
2018-01-12T09:46:19.021Z,3032.00
2018-01-12T09:47:19.057Z,2856.00
2018-01-12T09:48:19.099Z,2688.00
2018-01-12T09:49:19.132Z,2684.00
2018-01-12T09:50:19.148Z,2900.00
2018-01-12T09:51:19.190Z,3204.00
2018-01-12T09:52:19.221Z,3512.00
2018-01-12T09:53:19.249Z,3716.00
2018-01-12T09:54:19.280Z,3744.00
2018-01-12T09:55:19.313Z,3664.00
2018-01-12T09:56:19.348Z,3716.00
2018-01-12T09:57:19.382Z,3928.00
2018-01-12T09:58:19.430Z,4064.00
2018-01-12T09:59:19.444Z,4092.00
2018-01-12T10:00:19.479Z,3988.00
2018-01-12T10:01:19.515Z,3824.00
2018-01-12T10:02:19.545Z,3732.00
2018-01-12T10:03:19.610Z,3716.00
2018-01-12T10:04:19.609Z,3744.00
2018-01-12T10:05:19.714Z,3668.00
2018-01-12T10:06:19.676Z,3560.00
2018-01-12T10:07:19.718Z,3476.00
2018-01-12T10:08:19.741Z,3452.00
2018-01-12T10:09:19.776Z,3568.00
2018-01-12T10:10:19.806Z,3868.00
2018-01-12T10:11:19.849Z,4124.00
2018-01-12T10:12:19.936Z,4292.00
2018-01-12T10:13:19.918Z,4452.00
2018-01-12T10:14:19.946Z,4552.00
2018-01-12T10:15:19.972Z,4516.00
2018-01-12T10:16:20.007Z,4400.00
2018-01-12T10:17:20.048Z,4348.00
2018-01-12T10:18:20.072Z,4424.00
2018-01-12T10:19:20.101Z,4584.00
2018-01-12T10:20:20.136Z,4724.00
2018-01-12T10:21:20.168Z,4664.00
2018-01-12T10:22:20.202Z,4316.00
2018-01-12T10:23:20.235Z,3920.00
2018-01-12T10:24:20.304Z,3600.00
2018-01-12T10:25:20.302Z,3484.00
2018-01-12T10:26:20.347Z,3520.00
2018-01-12T10:27:20.366Z,3520.00
2018-01-12T10:28:20.402Z,3440.00
2018-01-12T10:29:20.431Z,3400.00
2018-01-12T10:30:20.470Z,3460.00
2018-01-12T10:31:20.497Z,3596.00
2018-01-12T10:32:20.533Z,3764.00
2018-01-12T10:33:20.565Z,3816.00
2018-01-12T10:34:20.597Z,3856.00
2018-01-12T10:35:20.641Z,4012.00
2018-01-12T10:36:20.663Z,4176.00
2018-01-12T10:37:20.696Z,4280.00
2018-01-12T10:38:20.733Z,4224.00
2018-01-12T10:39:20.776Z,4016.00
2018-01-12T10:40:20.799Z,3868.00
2018-01-12T10:41:20.882Z,3908.00
2018-01-12T10:42:20.873Z,4088.00
2018-01-12T10:43:20.897Z,4412.00
2018-01-12T10:44:20.938Z,4804.00
2018-01-12T10:45:20.964Z,5228.00
2018-01-12T10:46:21.000Z,5528.00
2018-01-12T10:47:21.031Z,5600.00
2018-01-12T10:48:21.267Z,5480.00
2018-01-12T10:49:21.096Z,5332.00
2018-01-12T10:50:21.134Z,5292.00
2018-01-12T10:51:21.166Z,5364.00
2018-01-12T10:52:21.196Z,5544.00
2018-01-12T10:53:21.227Z,5692.00
2018-01-12T10:54:21.261Z,5780.00
2018-01-12T10:55:21.377Z,5840.00
2018-01-12T10:56:21.354Z,5844.00
2018-01-12T10:57:21.366Z,5856.00
2018-01-12T10:58:21.409Z,5824.00
2018-01-12T10:59:21.450Z,5768.00
2018-01-12T11:00:21.466Z,5692.00
2018-01-12T11:01:21.509Z,5620.00
2018-01-12T11:02:21.590Z,5644.00
2018-01-12T11:03:21.570Z,5784.00
2018-01-12T11:04:21.600Z,5944.00
2018-01-12T11:05:21.632Z,6016.00
2018-01-12T11:06:21.668Z,5940.00
2018-01-12T11:07:21.706Z,5664.00
2018-01-12T11:08:21.738Z,5272.00
2018-01-12T11:09:21.767Z,5008.00
2018-01-12T11:10:21.802Z,4964.00
2018-01-12T11:11:21.833Z,5116.00
2018-01-12T11:12:21.872Z,5356.00
2018-01-12T11:13:21.899Z,5552.00
2018-01-12T11:14:22.020Z,5636.00
2018-01-12T11:15:21.977Z,5568.00
2018-01-12T11:16:22.015Z,5416.00
2018-01-12T11:17:22.045Z,5272.00
2018-01-12T11:18:22.069Z,5140.00
2018-01-12T11:19:22.109Z,5072.00
2018-01-12T11:20:22.141Z,5052.00
2018-01-12T11:21:22.495Z,5120.00
2018-01-12T11:22:22.204Z,5168.00
2018-01-12T11:23:22.251Z,5124.00
2018-01-12T11:24:22.279Z,5000.00
2018-01-12T11:25:22.308Z,4872.00
2018-01-12T11:26:22.352Z,4752.00
2018-01-12T11:27:22.373Z,4640.00
2018-01-12T11:28:22.410Z,4552.00
2018-01-12T11:29:22.459Z,4480.00
2018-01-12T11:30:22.488Z,4424.00
2018-01-12T11:31:22.510Z,4388.00
2018-01-12T11:32:22.544Z,4440.00
2018-01-12T11:33:22.583Z,4552.00
2018-01-12T11:34:22.614Z,4648.00
2018-01-12T11:35:22.645Z,4764.00
2018-01-12T11:36:22.691Z,4940.00
2018-01-12T11:37:22.713Z,5184.00
2018-01-12T11:38:22.828Z,5336.00
2018-01-12T11:39:22.780Z,5324.00
2018-01-12T11:40:22.815Z,5088.00
2018-01-12T11:41:22.846Z,4624.00
2018-01-12T11:42:22.884Z,4124.00
2018-01-12T11:43:22.911Z,3816.00
2018-01-12T11:44:22.965Z,3672.00
2018-01-12T11:45:22.984Z,3604.00
2018-01-12T11:46:23.020Z,3596.00
2018-01-12T11:47:23.050Z,3624.00
2018-01-12T11:48:23.087Z,3704.00
2018-01-12T11:49:23.123Z,3900.00
2018-01-12T11:50:23.150Z,4080.00
2018-01-12T11:51:23.193Z,4072.00
2018-01-12T11:52:23.221Z,3908.00
2018-01-12T11:53:23.252Z,3716.00
2018-01-12T11:54:23.285Z,3596.00
2018-01-12T11:55:23.318Z,3492.00
2018-01-12T11:56:23.352Z,3284.00
2018-01-12T11:57:23.436Z,3036.00
2018-01-12T11:58:23.424Z,2864.00
2018-01-12T11:59:23.467Z,2776.00
2018-01-12T12:00:23.496Z,2756.00
2018-01-12T12:01:23.522Z,2796.00
2018-01-12T12:02:23.572Z,2936.00
2018-01-12T12:03:23.588Z,3164.00
2018-01-12T12:04:23.722Z,3392.00
2018-01-12T12:05:23.651Z,3476.00
2018-01-12T12:06:23.682Z,3404.00
2018-01-12T12:07:23.718Z,3192.00
2018-01-12T12:08:23.751Z,2884.00
2018-01-12T12:09:23.845Z,2564.00
2018-01-12T12:10:23.819Z,2300.00
2018-01-12T12:11:23.854Z,2116.00
2018-01-12T12:12:23.884Z,2004.00
2018-01-12T12:13:23.918Z,1948.00
2018-01-12T12:14:23.953Z,1932.00
2018-01-12T12:15:23.984Z,1984.00
2018-01-12T12:16:24.017Z,2076.00
2018-01-12T12:17:24.053Z,2176.00
2018-01-12T12:18:24.084Z,2276.00
2018-01-12T12:19:24.115Z,2372.00
2018-01-12T12:20:24.149Z,2476.00
2018-01-12T12:21:24.247Z,2532.00
2018-01-12T12:22:24.215Z,2500.00
2018-01-12T12:23:24.256Z,2444.00
2018-01-12T12:24:24.292Z,2388.00
2018-01-12T12:25:24.315Z,2336.00
2018-01-12T12:26:24.414Z,2260.00
2018-01-12T12:27:24.386Z,2188.00
2018-01-12T12:28:24.481Z,2140.00
2018-01-12T12:29:24.449Z,2152.00
2018-01-12T12:30:24.498Z,2236.00
2018-01-12T12:31:24.532Z,2324.00
2018-01-12T12:32:24.548Z,2384.00
2018-01-12T12:33:24.578Z,2424.00
2018-01-12T12:34:24.617Z,2460.00
2018-01-12T12:35:24.721Z,2520.00
2018-01-12T12:36:24.679Z,2604.00
2018-01-12T12:37:24.770Z,2688.00
2018-01-12T12:38:24.747Z,2784.00
2018-01-12T12:39:24.781Z,2868.00
2018-01-12T12:40:24.811Z,2908.00
2018-01-12T12:41:24.849Z,2924.00
2018-01-12T12:42:24.879Z,2936.00
2018-01-12T12:44:24.946Z,3000.00
2018-01-12T12:45:24.988Z,3084.00
2018-01-12T12:46:25.012Z,3160.00
2018-01-12T12:47:25.058Z,3140.00
2018-01-12T12:48:25.078Z,3044.00
2018-01-12T12:49:25.113Z,2932.00
2018-01-12T12:50:25.175Z,2804.00